Omidiyeh, Iran
Current Conditions -  °F | °C
As of 2:00 PM on Thursday 27 Nov 2014 (Local Time) from OIAG Reporting Station
Clear Clear  
Wind Chill: 70°   Ceiling: Unl
Heat Index: 70°   Visibility: 4mi
Dew Point: 61°   Wind: 5mph
Humidity: 73%   Direction: 310°NW
Pressure: 30.03"   Gusts: NA
Location:  30.75°N, 49.71°E
Report Text: OIAG 271100Z 31004KT 7000 SKC 21/16 Q1017
Loading
Personal Weather Stations






























Interactive Weather Map New forecast layout! Learn more

10-Day Weather Forecast

Advertisements
Track Severe Weather on mobile